x

Western Hawaii - 205 Nm Sw Of Honolulu, Hi (51003) Wave Buoy

3:50am - Sat 13th Feb 2016 All times are HST. -10 hours from GMT.

  • Sig Wave height 6.9ft
  • Swell Direction
  • Peak Period 12s
  • Average Period 7s
  • Wind
    18mph, 20mph gusts
  • Sea Temp 78°f
  • Air Temp 76°f
  • Sea Pressure 1015.2mb
  • Western  Hawaii - 205 Nm Sw Of Honolulu, Hi
  • Western  Hawaii - 205 Nm Sw Of Honolulu, Hi

More Historic Weather Station data

Upgrade to MSW Pro to gain access to the past 30 days of data for over 8000 Wavebouys and Weather Stations around the globe.

Join Pro

Comparision Forecast

View Surf forecast
   
Sat 02/13 3:50am 7ft 12s 7s 18 20 mph 1015.2mb 78f 76f
2:50am 7ft 12s 8s 18 22 mph 1015.3mb 78f 76f
1:50am 7.5ft 12s 8s 18 20 mph 1015.6mb 78f 76f
12:50am 7ft 14s 7s 18 22 mph 1015.9mb 78f 76f
Fri 02/12 11:50pm 8ft 15s 8s 18 20 mph 1016.7mb 78f 76f
10:50pm 8ft 13s 8s 16 20 mph 1016.9mb 78f 77f
9:50pm 8ft 14s 8s 16 18 mph 1016.9mb 78f 77f
8:50pm 8ft 14s 8s 18 20 mph 1017mb 78f 77f
7:50pm 8ft 13s 8s 16 20 mph 1016.3mb 78f 77f
6:50pm 8ft 14s 8s 16 20 mph 1015.5mb 78f 77f
5:50pm 8ft 13s 8s 13 16 mph 1014.8mb 78f 77f
4:50pm 7.5ft 15s 8s 11 13 mph 1014.3mb 78f 76f
3:50pm 9ft 15s 9s 13 16 mph 1013.9mb 78f 76f
2:50pm 8ft 15s 9s 13 16 mph 1014.1mb 78f 76f
1:50pm 8.5ft 16s 9s 13 16 mph 1014.8mb 78f 76f
12:50pm 8.5ft 15s 9s 11 16 mph 1015.6mb 78f 76f
11:50am 8.5ft 14s 9s 13 16 mph 1016.2mb 78f 76f
10:50am 8ft 15s 9s 13 16 mph 1016.4mb 78f 76f
9:50am 9ft 15s 9s 13 18 mph 1016.3mb 78f 76f
8:50am 9ft 15s 8s 13 18 mph 1015.9mb 78f 76f
7:50am 10ft 13s 8s 18 22 mph 1015.4mb 78f 76f
6:50am 9.5ft 13s 8s 18 22 mph 1014.9mb 78f 76f
5:50am 10ft 14s 8s 18 20 mph 1014.4mb 78f 76f
4:50am 12ft 16s 9s 18 22 mph 1014.2mb 78f 76f
3:50am 10ft 15s 9s 18 22 mph 1014.2mb 78f 75f
2:50am 11.5ft 15s 9s 18 22 mph 1014.8mb 78f 75f
1:50am 11ft 13s 10s 16 20 mph 1015.5mb 78f 75f
12:50am 12ft 16s 10s 16 18 mph 1016mb 78f 75f
Thu 02/11 11:50pm 12.5ft 14s 11s 16 18 mph 1016.2mb 78f 75f
10:50pm 11ft 14s 11s 13 18 mph 1016.5mb 78f 76f
9:50pm 13ft 16s 11s 13 18 mph 1016.5mb 78f 75f
8:50pm 11ft 15s 10s 16 20 mph 1016.5mb 78f 76f
7:50pm 11ft 14s 11s 16 18 mph 1015.9mb 78f 76f
6:50pm 14.5ft 16s 12s 16 18 mph 1015.4mb 78f 76f
5:50pm 12ft 15s 11s 16 18 mph 1015mb 78f 76f
4:50pm 12.5ft 15s 11s 16 20 mph 1014.6mb 78f 76f
3:50pm 12.5ft 16s 11s 16 20 mph 1014.7mb 78f 76f
2:50pm 10.5ft 16s 10s 16 20 mph 1015mb 78f 76f
1:50pm 11ft 16s 11s 18 20 mph 1015.6mb 78f 75f
12:50pm 11ft 16s 11s 16 18 mph 1016.5mb 78f 76f
11:50am 10.5ft 16s 11s 16 20 mph 1017.4mb 78f 76f
10:50am 11ft 16s 11s 16 20 mph 1018mb 78f 76f
9:50am 12ft 16s 11s 13 18 mph 1018.2mb 78f 76f
8:50am 12ft 17s 12s 13 16 mph 1017.8mb 78f 75f
7:50am 11ft 17s 11s 11 16 mph 1017.6mb 78f 75f
6:50am 11.5ft 16s 11s 13 16 mph 1017.1mb 78f 74f
5:50am 12ft 16s 12s 13 16 mph 1016.3mb 78f 75f
4:50am 12ft 17s 12s 11 16 mph 1016.3mb 78f 75f
3:50am 12ft 17s 12s 9 13 mph 1016.4mb 78f 75f
2:50am 11.5ft 17s 12s 11 13 mph 1016.4mb 78f 75f
1:50am 12ft 17s 12s 9 13 mph 1016.8mb 78f 75f
12:50am 12ft 17s 12s 11 13 mph 1017.2mb 78f 75f
Wed 02/10 11:50pm 13ft 17s 12s 13 16 mph 1017.2mb 78f 75f
10:50pm 12ft 17s 12s 13 16 mph 1017.4mb 78f 75f
9:50pm 13ft 17s 12s 13 18 mph 1017.3mb 78f 75f
8:50pm 14.5ft 16s 13s 13 16 mph 1017.2mb 78f 75f
7:50pm 11.5ft 15s 12s 13 16 mph 1016.5mb 78f 75f
6:50pm 12.5ft 17s 13s 13 16 mph 1015.9mb 78f 75f
5:50pm 12.5ft 17s 12s 11 13 mph 1015.6mb 78f 75f
4:50pm 10ft 16s 11s 13 16 mph 1015.2mb 78f 75f
3:50pm 10.5ft 17s 11s 11 13 mph 1015.1mb 78f 75f
2:50pm 9ft 17s 10s 13 16 mph 1015.2mb 78f 75f
1:50pm 9.5ft 19s 11s 11 13 mph 1015.9mb 78f 75f
12:50pm 9ft 17s 11s 11 13 mph 1017mb 78f 75f
11:50am 9ft 13s 11s 11 13 mph 1018mb 78f 75f
10:50am 8ft 13s 10s 9 13 mph 1018.6mb 78f 75f
9:50am 8ft 13s 10s 9 11 mph 1018.6mb 78f 75f
8:50am 7.5ft 12s 10s 9 11 mph 1018.3mb 78f 75f
7:50am 7ft 11s 9s 9 11 mph 1018.2mb 78f 75f
6:50am 7ft 10s 9s 9 11 mph 1017.6mb 78f 74f
5:50am 7ft 11s 9s 7 9 mph 1017.1mb 78f 74f
4:50am 8ft 12s 9s 9 11 mph 1016.8mb 78f 74f
3:50am 7.5ft 12s 9s 9 11 mph 1016.7mb 78f 74f
2:50am 7ft 11s 9s 9 11 mph 1016.8mb 78f 74f
1:50am 7ft 10s 9s 9 13 mph 1017.3mb 78f 74f
12:50am 6.5ft 11s 9s 9 13 mph 1017.6mb 78f 74f
Tue 02/09 11:50pm 6.5ft 12s 9s 11 13 mph 1017.7mb 77f 74f
10:50pm 6.5ft 12s 9s 11 13 mph 1017.8mb 77f 74f
9:50pm 7ft 12s 9s 9 11 mph 1017.6mb 77f 74f
7:50pm 5.5ft 13s 8s 9 11 mph 1016.9mb 77f 74f
6:50pm 6ft 11s 9s 9 13 mph 1016.3mb 78f 74f
5:50pm 7ft 12s 9s 9 11 mph 1015.9mb 78f 74f
4:50pm 8ft 13s 9s 7 11 mph 1015.5mb 78f 74f
3:50pm 7.5ft 13s 9s 7 11 mph 1015.2mb 78f 74f